sensor_id;sensor_type;location;lat;lon;timestamp;P1;durP1;ratioP1;P2;durP2;ratioP2
63046;SDS011;62025;39.238;9.126;2022-09-27T00:01:25;4.10;;;1.67;;
63046;SDS011;62025;39.238;9.126;2022-09-27T00:03:51;3.17;;;1.50;;
63046;SDS011;62025;39.238;9.126;2022-09-27T00:08:51;4.60;;;2.10;;
63046;SDS011;62025;39.238;9.126;2022-09-27T00:13:58;2.78;;;1.73;;
63046;SDS011;62025;39.238;9.126;2022-09-27T00:16:26;3.60;;;1.90;;
63046;SDS011;62025;39.238;9.126;2022-09-27T00:19:03;3.67;;;2.00;;
63046;SDS011;62025;39.238;9.126;2022-09-27T00:21:32;4.22;;;1.77;;
63046;SDS011;62025;39.238;9.126;2022-09-27T00:24:00;3.72;;;1.80;;
63046;SDS011;62025;39.238;9.126;2022-09-27T00:26:26;5.38;;;1.67;;
63046;SDS011;62025;39.238;9.126;2022-09-27T00:28:53;4.88;;;1.92;;
63046;SDS011;62025;39.238;9.126;2022-09-27T00:31:21;3.72;;;1.58;;
63046;SDS011;62025;39.238;9.126;2022-09-27T00:33:51;4.65;;;1.60;;
63046;SDS011;62025;39.238;9.126;2022-09-27T00:36:18;4.13;;;1.60;;
63046;SDS011;62025;39.238;9.126;2022-09-27T00:41:13;9.48;;;1.70;;
63046;SDS011;62025;39.238;9.126;2022-09-27T00:43:53;2.97;;;1.50;;
63046;SDS011;62025;39.238;9.126;2022-09-27T00:46:27;3.65;;;1.40;;
63046;SDS011;62025;39.238;9.126;2022-09-27T00:51:43;4.03;;;1.58;;
63046;SDS011;62025;39.238;9.126;2022-09-27T00:54:13;2.38;;;1.30;;
63046;SDS011;62025;39.238;9.126;2022-09-27T00:56:42;2.85;;;1.48;;
63046;SDS011;62025;39.238;9.126;2022-09-27T00:59:16;2.97;;;1.27;;
63046;SDS011;62025;39.238;9.126;2022-09-27T01:01:48;3.38;;;1.67;;
63046;SDS011;62025;39.238;9.126;2022-09-27T01:04:16;4.38;;;1.40;;
63046;SDS011;62025;39.238;9.126;2022-09-27T01:06:49;4.03;;;1.48;;
63046;SDS011;62025;39.238;9.126;2022-09-27T01:09:16;3.05;;;1.30;;
63046;SDS011;62025;39.238;9.126;2022-09-27T01:14:40;4.28;;;1.20;;
63046;SDS011;62025;39.238;9.126;2022-09-27T01:29:57;1.30;;;1.20;;
63046;SDS011;62025;39.238;9.126;2022-09-27T01:36:04;3.50;;;1.40;;
63046;SDS011;62025;39.238;9.126;2022-09-27T01:45:27;3.30;;;1.50;;
63046;SDS011;62025;39.238;9.126;2022-09-27T01:48:14;2.78;;;1.50;;
63046;SDS011;62025;39.238;9.126;2022-09-27T01:53:38;5.60;;;1.50;;
63046;SDS011;62025;39.238;9.126;2022-09-27T01:56:42;3.15;;;1.50;;
63046;SDS011;62025;39.238;9.126;2022-09-27T01:59:22;2.63;;;1.30;;
63046;SDS011;62025;39.238;9.126;2022-09-27T02:02:45;4.22;;;1.30;;
63046;SDS011;62025;39.238;9.126;2022-09-27T02:05:42;5.28;;;1.92;;
63046;SDS011;62025;39.238;9.126;2022-09-27T02:09:05;2.30;;;1.20;;
63046;SDS011;62025;39.238;9.126;2022-09-27T02:12:03;2.65;;;1.25;;
63046;SDS011;62025;39.238;9.126;2022-09-27T02:14:54;3.78;;;1.27;;
63046;SDS011;62025;39.238;9.126;2022-09-27T02:17:46;2.72;;;1.08;;
63046;SDS011;62025;39.238;9.126;2022-09-27T02:20:34;1.83;;;1.13;;
63046;SDS011;62025;39.238;9.126;2022-09-27T02:23:28;1.67;;;1.10;;
63046;SDS011;62025;39.238;9.126;2022-09-27T02:26:21;3.83;;;1.42;;
63046;SDS011;62025;39.238;9.126;2022-09-27T02:28:57;1.73;;;1.20;;
63046;SDS011;62025;39.238;9.126;2022-09-27T02:31:41;5.90;;;1.60;;
63046;SDS011;62025;39.238;9.126;2022-09-27T02:36:38;1.73;;;0.95;;
63046;SDS011;62025;39.238;9.126;2022-09-27T02:39:06;2.60;;;1.23;;
63046;SDS011;62025;39.238;9.126;2022-09-27T02:41:32;2.83;;;0.90;;
63046;SDS011;62025;39.238;9.126;2022-09-27T02:44:00;5.32;;;1.10;;
63046;SDS011;62025;39.238;9.126;2022-09-27T02:49:30;1.27;;;1.10;;
63046;SDS011;62025;39.238;9.126;2022-09-27T03:05:31;3.92;;;1.10;;
63046;SDS011;62025;39.238;9.126;2022-09-27T03:08:06;2.75;;;1.10;;
63046;SDS011;62025;39.238;9.126;2022-09-27T03:10:32;3.33;;;1.23;;
63046;SDS011;62025;39.238;9.126;2022-09-27T03:12:58;3.05;;;1.10;;
63046;SDS011;62025;39.238;9.126;2022-09-27T03:15:24;1.63;;;0.98;;
63046;SDS011;62025;39.238;9.126;2022-09-27T03:18:10;1.98;;;1.10;;
63046;SDS011;62025;39.238;9.126;2022-09-27T03:20:57;3.00;;;1.10;;
63046;SDS011;62025;39.238;9.126;2022-09-27T03:23:24;3.58;;;1.10;;
63046;SDS011;62025;39.238;9.126;2022-09-27T03:25:50;2.55;;;1.00;;
63046;SDS011;62025;39.238;9.126;2022-09-27T03:28:17;3.88;;;1.10;;
63046;SDS011;62025;39.238;9.126;2022-09-27T03:30:44;3.95;;;1.15;;
63046;SDS011;62025;39.238;9.126;2022-09-27T03:33:15;4.30;;;1.17;;
63046;SDS011;62025;39.238;9.126;2022-09-27T03:35:55;2.78;;;1.00;;
63046;SDS011;62025;39.238;9.126;2022-09-27T03:38:22;2.95;;;1.10;;
63046;SDS011;62025;39.238;9.126;2022-09-27T03:40:48;3.20;;;1.00;;
63046;SDS011;62025;39.238;9.126;2022-09-27T03:43:14;1.55;;;1.00;;
63046;SDS011;62025;39.238;9.126;2022-09-27T03:45:43;2.50;;;1.20;;
63046;SDS011;62025;39.238;9.126;2022-09-27T03:48:10;3.22;;;1.05;;
63046;SDS011;62025;39.238;9.126;2022-09-27T03:50:36;3.47;;;1.05;;
63046;SDS011;62025;39.238;9.126;2022-09-27T03:53:02;3.30;;;1.02;;
63046;SDS011;62025;39.238;9.126;2022-09-27T03:55:29;3.15;;;1.25;;
63046;SDS011;62025;39.238;9.126;2022-09-27T03:57:55;2.83;;;1.08;;
63046;SDS011;62025;39.238;9.126;2022-09-27T04:00:21;3.05;;;1.20;;
63046;SDS011;62025;39.238;9.126;2022-09-27T04:02:48;5.40;;;1.30;;
63046;SDS011;62025;39.238;9.126;2022-09-27T04:05:21;3.17;;;1.13;;
63046;SDS011;62025;39.238;9.126;2022-09-27T04:07:51;5.47;;;1.10;;
63046;SDS011;62025;39.238;9.126;2022-09-27T04:10:18;2.85;;;1.10;;
63046;SDS011;62025;39.238;9.126;2022-09-27T04:12:45;5.72;;;1.20;;
63046;SDS011;62025;39.238;9.126;2022-09-27T04:15:11;3.30;;;0.98;;
63046;SDS011;62025;39.238;9.126;2022-09-27T04:17:50;4.97;;;1.20;;
63046;SDS011;62025;39.238;9.126;2022-09-27T04:20:28;3.33;;;1.98;;
63046;SDS011;62025;39.238;9.126;2022-09-27T04:22:56;4.20;;;1.30;;
63046;SDS011;62025;39.238;9.126;2022-09-27T04:25:22;7.53;;;1.38;;
63046;SDS011;62025;39.238;9.126;2022-09-27T04:27:50;6.32;;;1.30;;
63046;SDS011;62025;39.238;9.126;2022-09-27T04:30:19;5.30;;;1.33;;
63046;SDS011;62025;39.238;9.126;2022-09-27T04:33:12;1.90;;;1.10;;
63046;SDS011;62025;39.238;9.126;2022-09-27T04:36:17;5.57;;;1.10;;
63046;SDS011;62025;39.238;9.126;2022-09-27T04:39:12;2.90;;;1.20;;
63046;SDS011;62025;39.238;9.126;2022-09-27T04:41:41;6.85;;;1.25;;
63046;SDS011;62025;39.238;9.126;2022-09-27T04:44:07;4.25;;;1.10;;
63046;SDS011;62025;39.238;9.126;2022-09-27T04:46:33;6.88;;;1.27;;
63046;SDS011;62025;39.238;9.126;2022-09-27T04:49:00;3.60;;;1.15;;
63046;SDS011;62025;39.238;9.126;2022-09-27T04:51:28;6.60;;;1.40;;
63046;SDS011;62025;39.238;9.126;2022-09-27T04:53:55;3.60;;;1.70;;
63046;SDS011;62025;39.238;9.126;2022-09-27T04:56:26;1.92;;;1.20;;
63046;SDS011;62025;39.238;9.126;2022-09-27T04:58:52;4.13;;;1.33;;
63046;SDS011;62025;39.238;9.126;2022-09-27T05:01:19;3.13;;;1.27;;
63046;SDS011;62025;39.238;9.126;2022-09-27T05:06:25;2.60;;;1.20;;
63046;SDS011;62025;39.238;9.126;2022-09-27T05:08:55;4.13;;;1.23;;
63046;SDS011;62025;39.238;9.126;2022-09-27T05:11:28;4.80;;;1.80;;
63046;SDS011;62025;39.238;9.126;2022-09-27T05:14:12;9.70;;;1.80;;
63046;SDS011;62025;39.238;9.126;2022-09-27T05:16:54;6.32;;;1.48;;
63046;SDS011;62025;39.238;9.126;2022-09-27T05:19:26;5.45;;;1.70;;
63046;SDS011;62025;39.238;9.126;2022-09-27T05:22:10;5.10;;;1.83;;
63046;SDS011;62025;39.238;9.126;2022-09-27T05:24:37;5.28;;;1.75;;
63046;SDS011;62025;39.238;9.126;2022-09-27T05:27:04;11.30;;;2.30;;
63046;SDS011;62025;39.238;9.126;2022-09-27T05:29:32;5.53;;;1.67;;
63046;SDS011;62025;39.238;9.126;2022-09-27T05:32:23;5.63;;;2.10;;
63046;SDS011;62025;39.238;9.126;2022-09-27T05:35:12;3.65;;;2.13;;
63046;SDS011;62025;39.238;9.126;2022-09-27T05:37:39;9.30;;;2.03;;
63046;SDS011;62025;39.238;9.126;2022-09-27T05:40:05;8.48;;;1.92;;
63046;SDS011;62025;39.238;9.126;2022-09-27T05:42:32;6.18;;;2.55;;
63046;SDS011;62025;39.238;9.126;2022-09-27T05:44:59;3.78;;;1.80;;
63046;SDS011;62025;39.238;9.126;2022-09-27T05:47:25;5.88;;;2.05;;
63046;SDS011;62025;39.238;9.126;2022-09-27T05:49:51;5.57;;;2.10;;
63046;SDS011;62025;39.238;9.126;2022-09-27T05:52:19;5.50;;;1.80;;
63046;SDS011;62025;39.238;9.126;2022-09-27T05:54:45;7.97;;;1.90;;
63046;SDS011;62025;39.238;9.126;2022-09-27T05:57:13;6.85;;;1.88;;
63046;SDS011;62025;39.238;9.126;2022-09-27T05:59:45;8.15;;;1.77;;
63046;SDS011;62025;39.238;9.126;2022-09-27T06:02:20;11.20;;;2.70;;
63046;SDS011;62025;39.238;9.126;2022-09-27T06:05:05;4.32;;;2.10;;
63046;SDS011;62025;39.238;9.126;2022-09-27T06:07:51;4.65;;;1.88;;
63046;SDS011;62025;39.238;9.126;2022-09-27T06:10:24;7.90;;;3.25;;
63046;SDS011;62025;39.238;9.126;2022-09-27T06:12:51;5.57;;;1.70;;
63046;SDS011;62025;39.238;9.126;2022-09-27T06:15:28;6.72;;;1.92;;
63046;SDS011;62025;39.238;9.126;2022-09-27T06:18:01;5.53;;;2.05;;
63046;SDS011;62025;39.238;9.126;2022-09-27T06:20:34;8.98;;;2.47;;
63046;SDS011;62025;39.238;9.126;2022-09-27T06:23:06;8.50;;;2.50;;
63046;SDS011;62025;39.238;9.126;2022-09-27T06:25:41;5.45;;;2.33;;
63046;SDS011;62025;39.238;9.126;2022-09-27T06:28:19;10.47;;;2.10;;
63046;SDS011;62025;39.238;9.126;2022-09-27T06:30:49;12.43;;;2.70;;
63046;SDS011;62025;39.238;9.126;2022-09-27T06:33:26;10.68;;;2.15;;
63046;SDS011;62025;39.238;9.126;2022-09-27T06:35:53;3.90;;;2.03;;
63046;SDS011;62025;39.238;9.126;2022-09-27T06:38:19;7.68;;;2.42;;
63046;SDS011;62025;39.238;9.126;2022-09-27T06:41:21;7.30;;;1.83;;
63046;SDS011;62025;39.238;9.126;2022-09-27T06:44:08;5.60;;;2.25;;
63046;SDS011;62025;39.238;9.126;2022-09-27T06:46:37;7.38;;;3.20;;
63046;SDS011;62025;39.238;9.126;2022-09-27T06:49:09;8.00;;;3.58;;
63046;SDS011;62025;39.238;9.126;2022-09-27T06:51:38;5.22;;;2.25;;
63046;SDS011;62025;39.238;9.126;2022-09-27T06:54:04;6.20;;;2.47;;
63046;SDS011;62025;39.238;9.126;2022-09-27T06:56:31;6.22;;;2.60;;
63046;SDS011;62025;39.238;9.126;2022-09-27T06:58:57;6.40;;;2.30;;
63046;SDS011;62025;39.238;9.126;2022-09-27T07:01:42;5.50;;;2.00;;
63046;SDS011;62025;39.238;9.126;2022-09-27T07:04:27;7.50;;;2.17;;
63046;SDS011;62025;39.238;9.126;2022-09-27T07:07:12;6.07;;;2.33;;
63046;SDS011;62025;39.238;9.126;2022-09-27T07:09:42;5.45;;;2.35;;
63046;SDS011;62025;39.238;9.126;2022-09-27T07:12:10;6.00;;;1.92;;
63046;SDS011;62025;39.238;9.126;2022-09-27T07:14:38;8.17;;;2.17;;
63046;SDS011;62025;39.238;9.126;2022-09-27T07:17:05;3.90;;;1.98;;
63046;SDS011;62025;39.238;9.126;2022-09-27T07:19:37;5.57;;;1.90;;
63046;SDS011;62025;39.238;9.126;2022-09-27T07:22:05;4.80;;;1.90;;
63046;SDS011;62025;39.238;9.126;2022-09-27T07:24:32;7.03;;;1.90;;
63046;SDS011;62025;39.238;9.126;2022-09-27T07:26:58;8.82;;;1.60;;
63046;SDS011;62025;39.238;9.126;2022-09-27T07:29:25;5.25;;;2.00;;
63046;SDS011;62025;39.238;9.126;2022-09-27T07:31:52;11.73;;;1.95;;
63046;SDS011;62025;39.238;9.126;2022-09-27T07:34:18;4.63;;;1.90;;
63046;SDS011;62025;39.238;9.126;2022-09-27T07:36:45;7.68;;;1.95;;
63046;SDS011;62025;39.238;9.126;2022-09-27T07:39:12;3.45;;;2.10;;
63046;SDS011;62025;39.238;9.126;2022-09-27T07:41:38;27.08;;;1.90;;
63046;SDS011;62025;39.238;9.126;2022-09-27T07:44:09;5.32;;;1.75;;
63046;SDS011;62025;39.238;9.126;2022-09-27T07:46:46;3.42;;;1.52;;
63046;SDS011;62025;39.238;9.126;2022-09-27T07:49:22;3.15;;;1.60;;
63046;SDS011;62025;39.238;9.126;2022-09-27T07:51:49;4.10;;;1.60;;
63046;SDS011;62025;39.238;9.126;2022-09-27T07:54:32;5.88;;;1.65;;
63046;SDS011;62025;39.238;9.126;2022-09-27T07:57:04;4.57;;;1.58;;
63046;SDS011;62025;39.238;9.126;2022-09-27T07:59:36;3.08;;;1.30;;
63046;SDS011;62025;39.238;9.126;2022-09-27T08:02:04;2.50;;;1.23;;
63046;SDS011;62025;39.238;9.126;2022-09-27T08:04:31;3.05;;;1.60;;
63046;SDS011;62025;39.238;9.126;2022-09-27T08:06:57;3.17;;;1.20;;
63046;SDS011;62025;39.238;9.126;2022-09-27T08:09:24;3.38;;;1.48;;
63046;SDS011;62025;39.238;9.126;2022-09-27T08:11:51;4.75;;;1.50;;
63046;SDS011;62025;39.238;9.126;2022-09-27T08:14:17;5.45;;;1.65;;
63046;SDS011;62025;39.238;9.126;2022-09-27T08:16:47;3.30;;;1.52;;
63046;SDS011;62025;39.238;9.126;2022-09-27T08:19:44;3.92;;;1.40;;
63046;SDS011;62025;39.238;9.126;2022-09-27T08:22:31;6.55;;;1.90;;
63046;SDS011;62025;39.238;9.126;2022-09-27T08:25:02;5.80;;;1.63;;
63046;SDS011;62025;39.238;9.126;2022-09-27T08:27:37;3.95;;;1.90;;
63046;SDS011;62025;39.238;9.126;2022-09-27T08:30:17;5.00;;;1.80;;
63046;SDS011;62025;39.238;9.126;2022-09-27T08:32:43;3.85;;;1.85;;
63046;SDS011;62025;39.238;9.126;2022-09-27T08:35:10;5.60;;;1.65;;
63046;SDS011;62025;39.238;9.126;2022-09-27T08:37:36;7.82;;;1.95;;
63046;SDS011;62025;39.238;9.126;2022-09-27T08:40:04;3.88;;;2.13;;
63046;SDS011;62025;39.238;9.126;2022-09-27T08:45:26;4.90;;;2.08;;
63046;SDS011;62025;39.238;9.126;2022-09-27T08:48:10;7.18;;;2.40;;
63046;SDS011;62025;39.238;9.126;2022-09-27T08:50:40;3.92;;;1.80;;
63046;SDS011;62025;39.238;9.126;2022-09-27T08:53:22;5.07;;;1.60;;
63046;SDS011;62025;39.238;9.126;2022-09-27T08:55:58;4.30;;;1.60;;
63046;SDS011;62025;39.238;9.126;2022-09-27T09:01:14;3.65;;;1.50;;
63046;SDS011;62025;39.238;9.126;2022-09-27T09:04:14;2.95;;;1.48;;
63046;SDS011;62025;39.238;9.126;2022-09-27T09:28:23;4.03;;;1.55;;
63046;SDS011;62025;39.238;9.126;2022-09-27T09:31:07;3.58;;;1.40;;
63046;SDS011;62025;39.238;9.126;2022-09-27T09:33:58;5.50;;;2.35;;
63046;SDS011;62025;39.238;9.126;2022-09-27T09:39:35;5.47;;;1.55;;
63046;SDS011;62025;39.238;9.126;2022-09-27T09:42:33;5.55;;;1.38;;
63046;SDS011;62025;39.238;9.126;2022-09-27T09:47:43;2.60;;;1.10;;
63046;SDS011;62025;39.238;9.126;2022-09-27T09:50:17;10.95;;;1.60;;
63046;SDS011;62025;39.238;9.126;2022-09-27T09:53:10;2.60;;;1.35;;
63046;SDS011;62025;39.238;9.126;2022-09-27T09:55:59;5.20;;;1.50;;
63046;SDS011;62025;39.238;9.126;2022-09-27T09:58:33;5.28;;;1.20;;
63046;SDS011;62025;39.238;9.126;2022-09-27T10:01:25;2.40;;;1.08;;
63046;SDS011;62025;39.238;9.126;2022-09-27T10:04:02;3.65;;;1.48;;
63046;SDS011;62025;39.238;9.126;2022-09-27T10:06:29;4.55;;;1.20;;
63046;SDS011;62025;39.238;9.126;2022-09-27T10:08:57;2.63;;;1.25;;
63046;SDS011;62025;39.238;9.126;2022-09-27T10:11:41;4.35;;;1.30;;
63046;SDS011;62025;39.238;9.126;2022-09-27T10:14:16;4.40;;;1.65;;
63046;SDS011;62025;39.238;9.126;2022-09-27T10:16:49;2.30;;;1.42;;
63046;SDS011;62025;39.238;9.126;2022-09-27T10:19:25;3.20;;;1.58;;
63046;SDS011;62025;39.238;9.126;2022-09-27T10:22:02;4.22;;;1.20;;
63046;SDS011;62025;39.238;9.126;2022-09-27T10:24:54;6.63;;;1.60;;
63046;SDS011;62025;39.238;9.126;2022-09-27T10:27:51;4.78;;;1.20;;
63046;SDS011;62025;39.238;9.126;2022-09-27T10:30:28;3.55;;;1.15;;
63046;SDS011;62025;39.238;9.126;2022-09-27T10:33:05;2.35;;;1.20;;
63046;SDS011;62025;39.238;9.126;2022-09-27T10:35:45;2.38;;;1.52;;
63046;SDS011;62025;39.238;9.126;2022-09-27T10:38:28;2.72;;;1.67;;
63046;SDS011;62025;39.238;9.126;2022-09-27T10:44:18;3.47;;;1.90;;
63046;SDS011;62025;39.238;9.126;2022-09-27T10:47:07;1.75;;;1.20;;
63046;SDS011;62025;39.238;9.126;2022-09-27T10:50:04;6.38;;;1.50;;
63046;SDS011;62025;39.238;9.126;2022-09-27T10:53:06;3.58;;;1.20;;
63046;SDS011;62025;39.238;9.126;2022-09-27T10:55:48;2.25;;;1.20;;
63046;SDS011;62025;39.238;9.126;2022-09-27T10:58:22;1.45;;;1.25;;
63046;SDS011;62025;39.238;9.126;2022-09-27T11:00:58;2.55;;;1.60;;
63046;SDS011;62025;39.238;9.126;2022-09-27T11:03:30;5.57;;;1.30;;
63046;SDS011;62025;39.238;9.126;2022-09-27T11:06:17;3.22;;;1.40;;
63046;SDS011;62025;39.238;9.126;2022-09-27T11:08:47;2.90;;;1.00;;
63046;SDS011;62025;39.238;9.126;2022-09-27T11:11:19;3.17;;;1.42;;
63046;SDS011;62025;39.238;9.126;2022-09-27T11:27:33;6.10;;;1.13;;
63046;SDS011;62025;39.238;9.126;2022-09-27T11:30:41;2.67;;;1.38;;
63046;SDS011;62025;39.238;9.126;2022-09-27T12:01:49;4.57;;;1.30;;
63046;SDS011;62025;39.238;9.126;2022-09-27T12:05:03;2.20;;;0.85;;
63046;SDS011;62025;39.238;9.126;2022-09-27T12:10:26;3.53;;;0.82;;
63046;SDS011;62025;39.238;9.126;2022-09-27T12:12:54;4.47;;;1.00;;
63046;SDS011;62025;39.238;9.126;2022-09-27T12:15:24;3.65;;;1.17;;
63046;SDS011;62025;39.238;9.126;2022-09-27T12:18:02;2.97;;;1.40;;
63046;SDS011;62025;39.238;9.126;2022-09-27T12:20:54;3.40;;;1.40;;
63046;SDS011;62025;39.238;9.126;2022-09-27T12:23:24;4.22;;;0.80;;
63046;SDS011;62025;39.238;9.126;2022-09-27T12:26:49;2.80;;;0.90;;
63046;SDS011;62025;39.238;9.126;2022-09-27T12:35:18;3.03;;;0.82;;
63046;SDS011;62025;39.238;9.126;2022-09-27T12:40:43;1.65;;;0.80;;
63046;SDS011;62025;39.238;9.126;2022-09-27T12:43:28;3.33;;;1.10;;
63046;SDS011;62025;39.238;9.126;2022-09-27T13:00:32;5.55;;;1.00;;
63046;SDS011;62025;39.238;9.126;2022-09-27T13:03:30;2.08;;;0.93;;
63046;SDS011;62025;39.238;9.126;2022-09-27T13:06:10;2.28;;;0.90;;
63046;SDS011;62025;39.238;9.126;2022-09-27T13:12:10;4.13;;;0.82;;
63046;SDS011;62025;39.238;9.126;2022-09-27T13:15:17;4.85;;;0.95;;
63046;SDS011;62025;39.238;9.126;2022-09-27T13:17:55;1.45;;;0.90;;
63046;SDS011;62025;39.238;9.126;2022-09-27T13:20:41;3.00;;;1.00;;
63046;SDS011;62025;39.238;9.126;2022-09-27T13:29:19;2.17;;;1.02;;
63046;SDS011;62025;39.238;9.126;2022-09-27T13:45:57;2.88;;;0.90;;
63046;SDS011;62025;39.238;9.126;2022-09-27T13:53:58;3.65;;;1.02;;
63046;SDS011;62025;39.238;9.126;2022-09-27T13:59:07;2.42;;;1.23;;
63046;SDS011;62025;39.238;9.126;2022-09-27T14:01:44;2.13;;;1.00;;
63046;SDS011;62025;39.238;9.126;2022-09-27T14:04:32;3.95;;;0.90;;
63046;SDS011;62025;39.238;9.126;2022-09-27T14:07:07;3.30;;;1.60;;
63046;SDS011;62025;39.238;9.126;2022-09-27T14:09:42;6.47;;;1.27;;
63046;SDS011;62025;39.238;9.126;2022-09-27T14:12:18;4.07;;;1.20;;
63046;SDS011;62025;39.238;9.126;2022-09-27T14:14:51;3.58;;;1.20;;
63046;SDS011;62025;39.238;9.126;2022-09-27T14:17:21;4.53;;;0.90;;
63046;SDS011;62025;39.238;9.126;2022-09-27T14:19:47;3.75;;;0.93;;
63046;SDS011;62025;39.238;9.126;2022-09-27T14:22:20;3.58;;;0.90;;
63046;SDS011;62025;39.238;9.126;2022-09-27T14:24:54;3.58;;;1.30;;
63046;SDS011;62025;39.238;9.126;2022-09-27T14:27:28;2.85;;;1.60;;
63046;SDS011;62025;39.238;9.126;2022-09-27T14:30:13;3.97;;;1.08;;
63046;SDS011;62025;39.238;9.126;2022-09-27T14:32:49;6.30;;;1.23;;
63046;SDS011;62025;39.238;9.126;2022-09-27T14:35:32;4.18;;;0.90;;
63046;SDS011;62025;39.238;9.126;2022-09-27T14:38:18;7.53;;;1.50;;
63046;SDS011;62025;39.238;9.126;2022-09-27T14:43:26;3.78;;;1.02;;
63046;SDS011;62025;39.238;9.126;2022-09-27T14:45:57;4.00;;;1.10;;
63046;SDS011;62025;39.238;9.126;2022-09-27T14:48:33;6.03;;;1.27;;
63046;SDS011;62025;39.238;9.126;2022-09-27T14:53:43;5.03;;;1.17;;
63046;SDS011;62025;39.238;9.126;2022-09-27T14:56:25;7.30;;;1.55;;
63046;SDS011;62025;39.238;9.126;2022-09-27T14:59:06;4.00;;;1.10;;
63046;SDS011;62025;39.238;9.126;2022-09-27T15:01:47;5.15;;;1.15;;
63046;SDS011;62025;39.238;9.126;2022-09-27T15:04:17;3.08;;;1.13;;
63046;SDS011;62025;39.238;9.126;2022-09-27T15:06:45;3.22;;;1.00;;
63046;SDS011;62025;39.238;9.126;2022-09-27T15:09:12;5.50;;;1.08;;
63046;SDS011;62025;39.238;9.126;2022-09-27T15:11:40;4.95;;;1.30;;
63046;SDS011;62025;39.238;9.126;2022-09-27T15:14:12;9.05;;;1.20;;
63046;SDS011;62025;39.238;9.126;2022-09-27T15:16:44;5.63;;;0.98;;
63046;SDS011;62025;39.238;9.126;2022-09-27T15:19:27;5.72;;;1.00;;
63046;SDS011;62025;39.238;9.126;2022-09-27T15:21:54;8.50;;;1.27;;
63046;SDS011;62025;39.238;9.126;2022-09-27T15:27:15;10.10;;;1.33;;
63046;SDS011;62025;39.238;9.126;2022-09-27T15:29:49;3.95;;;1.25;;
63046;SDS011;62025;39.238;9.126;2022-09-27T15:32:23;5.50;;;1.23;;
63046;SDS011;62025;39.238;9.126;2022-09-27T15:34:52;4.75;;;1.10;;
63046;SDS011;62025;39.238;9.126;2022-09-27T15:40:05;2.92;;;0.98;;
63046;SDS011;62025;39.238;9.126;2022-09-27T15:42:54;5.38;;;1.10;;
63046;SDS011;62025;39.238;9.126;2022-09-27T15:45:33;4.22;;;1.20;;
63046;SDS011;62025;39.238;9.126;2022-09-27T15:48:05;4.88;;;1.27;;
63046;SDS011;62025;39.238;9.126;2022-09-27T15:50:42;10.57;;;1.48;;
63046;SDS011;62025;39.238;9.126;2022-09-27T15:53:08;5.47;;;1.25;;
63046;SDS011;62025;39.238;9.126;2022-09-27T15:55:39;6.20;;;1.20;;
63046;SDS011;62025;39.238;9.126;2022-09-27T15:58:18;4.75;;;1.00;;
63046;SDS011;62025;39.238;9.126;2022-09-27T16:00:52;8.47;;;1.27;;
63046;SDS011;62025;39.238;9.126;2022-09-27T16:03:24;6.00;;;1.17;;
63046;SDS011;62025;39.238;9.126;2022-09-27T16:05:51;4.63;;;1.48;;
63046;SDS011;62025;39.238;9.126;2022-09-27T16:08:20;4.15;;;1.70;;
63046;SDS011;62025;39.238;9.126;2022-09-27T16:10:49;9.73;;;4.25;;
63046;SDS011;62025;39.238;9.126;2022-09-27T16:13:19;6.97;;;2.42;;
63046;SDS011;62025;39.238;9.126;2022-09-27T16:15:46;4.90;;;1.60;;
63046;SDS011;62025;39.238;9.126;2022-09-27T16:18:13;3.70;;;1.45;;
63046;SDS011;62025;39.238;9.126;2022-09-27T16:20:39;6.13;;;1.70;;
63046;SDS011;62025;39.238;9.126;2022-09-27T16:23:06;6.72;;;1.63;;
63046;SDS011;62025;39.238;9.126;2022-09-27T16:25:32;4.65;;;1.40;;
63046;SDS011;62025;39.238;9.126;2022-09-27T16:27:59;5.32;;;1.63;;
63046;SDS011;62025;39.238;9.126;2022-09-27T16:30:26;7.60;;;2.55;;
63046;SDS011;62025;39.238;9.126;2022-09-27T16:32:54;5.13;;;2.30;;
63046;SDS011;62025;39.238;9.126;2022-09-27T16:35:21;6.57;;;1.80;;
63046;SDS011;62025;39.238;9.126;2022-09-27T16:37:48;4.70;;;1.40;;
63046;SDS011;62025;39.238;9.126;2022-09-27T16:40:14;6.22;;;1.33;;
63046;SDS011;62025;39.238;9.126;2022-09-27T16:42:44;12.02;;;2.30;;
63046;SDS011;62025;39.238;9.126;2022-09-27T16:45:13;6.47;;;1.90;;
63046;SDS011;62025;39.238;9.126;2022-09-27T16:47:41;7.07;;;2.03;;
63046;SDS011;62025;39.238;9.126;2022-09-27T16:50:09;5.95;;;1.90;;
63046;SDS011;62025;39.238;9.126;2022-09-27T16:52:56;9.80;;;2.20;;
63046;SDS011;62025;39.238;9.126;2022-09-27T16:55:24;9.63;;;2.45;;
63046;SDS011;62025;39.238;9.126;2022-09-27T16:57:52;12.05;;;2.72;;
63046;SDS011;62025;39.238;9.126;2022-09-27T17:00:20;10.00;;;2.50;;
63046;SDS011;62025;39.238;9.126;2022-09-27T17:02:46;8.93;;;2.17;;
63046;SDS011;62025;39.238;9.126;2022-09-27T17:05:13;12.30;;;2.30;;
63046;SDS011;62025;39.238;9.126;2022-09-27T17:07:40;7.60;;;2.10;;
63046;SDS011;62025;39.238;9.126;2022-09-27T17:10:07;10.30;;;2.78;;
63046;SDS011;62025;39.238;9.126;2022-09-27T17:12:33;7.78;;;2.85;;
63046;SDS011;62025;39.238;9.126;2022-09-27T17:14:59;9.73;;;2.00;;
63046;SDS011;62025;39.238;9.126;2022-09-27T17:17:26;10.48;;;2.58;;
63046;SDS011;62025;39.238;9.126;2022-09-27T17:19:52;7.22;;;2.10;;
63046;SDS011;62025;39.238;9.126;2022-09-27T17:22:18;9.07;;;2.20;;
63046;SDS011;62025;39.238;9.126;2022-09-27T17:24:45;9.88;;;2.20;;
63046;SDS011;62025;39.238;9.126;2022-09-27T17:27:11;6.65;;;1.90;;
63046;SDS011;62025;39.238;9.126;2022-09-27T17:29:37;8.23;;;1.75;;
63046;SDS011;62025;39.238;9.126;2022-09-27T17:32:03;10.43;;;2.15;;
63046;SDS011;62025;39.238;9.126;2022-09-27T17:34:33;6.28;;;1.80;;
63046;SDS011;62025;39.238;9.126;2022-09-27T17:37:00;7.93;;;2.35;;
63046;SDS011;62025;39.238;9.126;2022-09-27T17:39:26;8.07;;;2.10;;
63046;SDS011;62025;39.238;9.126;2022-09-27T17:41:52;9.95;;;2.03;;
63046;SDS011;62025;39.238;9.126;2022-09-27T17:44:19;8.30;;;2.05;;
63046;SDS011;62025;39.238;9.126;2022-09-27T17:46:45;12.98;;;3.20;;
63046;SDS011;62025;39.238;9.126;2022-09-27T17:49:12;12.07;;;2.45;;
63046;SDS011;62025;39.238;9.126;2022-09-27T17:51:56;8.13;;;2.25;;
63046;SDS011;62025;39.238;9.126;2022-09-27T17:54:24;8.70;;;2.47;;
63046;SDS011;62025;39.238;9.126;2022-09-27T17:56:52;11.52;;;2.40;;
63046;SDS011;62025;39.238;9.126;2022-09-27T17:59:20;10.27;;;2.08;;
63046;SDS011;62025;39.238;9.126;2022-09-27T18:01:47;14.82;;;2.10;;
63046;SDS011;62025;39.238;9.126;2022-09-27T18:04:14;6.90;;;2.45;;
63046;SDS011;62025;39.238;9.126;2022-09-27T18:06:43;10.63;;;1.80;;
63046;SDS011;62025;39.238;9.126;2022-09-27T18:09:11;9.38;;;1.65;;
63046;SDS011;62025;39.238;9.126;2022-09-27T18:11:40;9.18;;;1.77;;
63046;SDS011;62025;39.238;9.126;2022-09-27T18:14:08;8.00;;;1.98;;
63046;SDS011;62025;39.238;9.126;2022-09-27T18:16:39;7.40;;;1.77;;
63046;SDS011;62025;39.238;9.126;2022-09-27T18:19:09;11.60;;;1.83;;
63046;SDS011;62025;39.238;9.126;2022-09-27T18:21:39;5.90;;;1.63;;
63046;SDS011;62025;39.238;9.126;2022-09-27T18:24:05;8.25;;;1.67;;
63046;SDS011;62025;39.238;9.126;2022-09-27T18:26:33;7.03;;;1.48;;
63046;SDS011;62025;39.238;9.126;2022-09-27T18:29:15;12.43;;;2.75;;
63046;SDS011;62025;39.238;9.126;2022-09-27T18:31:43;9.85;;;2.10;;
63046;SDS011;62025;39.238;9.126;2022-09-27T18:34:09;7.43;;;1.98;;
63046;SDS011;62025;39.238;9.126;2022-09-27T18:36:35;10.77;;;2.03;;
63046;SDS011;62025;39.238;9.126;2022-09-27T18:39:04;10.75;;;2.50;;
63046;SDS011;62025;39.238;9.126;2022-09-27T18:41:34;12.25;;;2.55;;
63046;SDS011;62025;39.238;9.126;2022-09-27T18:44:00;9.75;;;2.85;;
63046;SDS011;62025;39.238;9.126;2022-09-27T18:46:33;16.52;;;2.60;;
63046;SDS011;62025;39.238;9.126;2022-09-27T18:49:00;7.45;;;2.15;;
63046;SDS011;62025;39.238;9.126;2022-09-27T18:51:28;4.93;;;1.50;;
63046;SDS011;62025;39.238;9.126;2022-09-27T18:53:58;8.00;;;1.70;;